Time;durP1;ratioP1;P1;durP2;ratioP2;P2;SDS_P1;SDS_P2;PMS_P1;PMS_P2;Temp;Humidity;BMP_temperature;BMP_pressure;BME280_temperature;BME280_humidity;BME280_pressure;Samples;Min_cycle;Max_cycle;Signal;HPM_P1;HPM_P2
2024/01/15 00:01:14;;;;;;;8.65;4.82;;;;;;;;;;6287927;28;20056;-65
2024/01/15 00:04:39;;;;;;;7.63;4.32;;;;;;;;;;6276081;28;20041;-66
2024/01/15 00:07:40;;;;;;;7.55;4.00;;;;;;;;;;6288793;28;20048;-65
2024/01/15 00:10:41;;;;;;;7.45;4.18;;;;;;;;;;6288110;28;20459;-65
2024/01/15 00:13:42;;;;;;;9.48;4.32;;;;;;;;;;6289149;28;20789;-65
2024/01/15 00:16:42;;;;;;;8.55;4.35;;;;;;;;;;6288548;28;20052;-65
2024/01/15 00:19:43;;;;;;;7.78;3.97;;;;;;;;;;6287346;28;20048;-66
2024/01/15 00:22:44;;;;;;;8.82;4.28;;;;;;;;;;6276670;28;20102;-65
2024/01/15 00:25:44;;;;;;;7.68;4.50;;;;;;;;;;6282329;28;20063;-65
2024/01/15 00:28:45;;;;;;;8.65;4.03;;;;;;;;;;6280515;28;20154;-65
2024/01/15 00:31:46;;;;;;;8.05;4.00;;;;;;;;;;6287465;28;20048;-65
2024/01/15 00:34:46;;;;;;;8.73;4.32;;;;;;;;;;6288544;28;20052;-65
2024/01/15 00:37:47;;;;;;;10.32;4.70;;;;;;;;;;6282734;28;20048;-65
2024/01/15 00:40:48;;;;;;;7.28;3.33;;;;;;;;;;6284704;28;20052;-66
2024/01/15 00:43:49;;;;;;;10.35;4.40;;;;;;;;;;6287316;28;20048;-64
2024/01/15 00:46:50;;;;;;;8.80;4.25;;;;;;;;;;6278566;28;20399;-64
2024/01/15 00:49:51;;;;;;;8.18;4.13;;;;;;;;;;6287135;28;20049;-65
2024/01/15 00:52:51;;;;;;;8.20;3.90;;;;;;;;;;6287153;28;20052;-65
2024/01/15 00:55:52;;;;;;;8.52;4.40;;;;;;;;;;6288592;28;20056;-64
2024/01/15 00:58:52;;;;;;;7.30;3.80;;;;;;;;;;6288167;28;20045;-65
2024/01/15 01:01:53;;;;;;;8.25;3.72;;;;;;;;;;6285792;28;20052;-65
2024/01/15 01:04:54;;;;;;;7.47;3.50;;;;;;;;;;6287204;28;20510;-65
2024/01/15 01:07:55;;;;;;;8.00;3.97;;;;;;;;;;6289121;28;20052;-64
2024/01/15 01:10:56;;;;;;;6.78;3.67;;;;;;;;;;6290603;28;20041;-65
2024/01/15 01:13:57;;;;;;;8.02;3.88;;;;;;;;;;6291208;28;20448;-65
2024/01/15 01:16:58;;;;;;;6.47;3.60;;;;;;;;;;6294480;28;20048;-65
2024/01/15 01:19:59;;;;;;;7.72;3.70;;;;;;;;;;6291588;28;20110;-65
2024/01/15 01:23:00;;;;;;;8.48;3.97;;;;;;;;;;6291372;28;20469;-65
2024/01/15 01:26:01;;;;;;;7.82;4.20;;;;;;;;;;6294864;28;20460;-65
2024/01/15 01:29:02;;;;;;;6.78;3.15;;;;;;;;;;6291819;28;20063;-66
2024/01/15 01:32:03;;;;;;;6.72;3.97;;;;;;;;;;6291286;28;20048;-65
2024/01/15 01:35:04;;;;;;;7.20;3.65;;;;;;;;;;6292375;28;20067;-65
2024/01/15 01:38:05;;;;;;;6.25;3.28;;;;;;;;;;6292383;28;20044;-65
2024/01/15 01:41:05;;;;;;;6.28;3.30;;;;;;;;;;6290393;28;20036;-65
2024/01/15 01:44:07;;;;;;;6.75;3.70;;;;;;;;;;6292362;28;20051;-65
2024/01/15 01:47:08;;;;;;;7.85;3.80;;;;;;;;;;6292484;28;20134;-65
2024/01/15 01:50:09;;;;;;;6.00;3.28;;;;;;;;;;6290830;28;20060;-65
2024/01/15 01:53:10;;;;;;;7.13;3.42;;;;;;;;;;6292557;28;20086;-65
2024/01/15 01:56:12;;;;;;;6.80;3.17;;;;;;;;;;6292772;28;20063;-65
2024/01/15 01:59:13;;;;;;;5.28;2.78;;;;;;;;;;6291238;28;20063;-65
2024/01/15 02:02:15;;;;;;;6.70;3.05;;;;;;;;;;6290410;28;20051;-65
2024/01/15 02:05:20;;;;;;;6.27;2.93;;;;;;;;;;6291806;28;20052;-66
2024/01/15 02:08:21;;;;;;;5.15;2.60;;;;;;;;;;6290423;28;20301;-65
2024/01/15 02:11:22;;;;;;;5.28;2.65;;;;;;;;;;6290972;28;20045;-65
2024/01/15 02:14:23;;;;;;;5.22;2.70;;;;;;;;;;6288670;28;20044;-65
2024/01/15 02:17:23;;;;;;;4.88;2.40;;;;;;;;;;6286684;28;20048;-66
2024/01/15 02:20:25;;;;;;;5.90;2.63;;;;;;;;;;6289103;28;20052;-66
2024/01/15 02:23:27;;;;;;;5.22;2.90;;;;;;;;;;6291380;28;20041;-65
2024/01/15 02:26:28;;;;;;;6.28;2.63;;;;;;;;;;6290763;28;20044;-65
2024/01/15 02:29:28;;;;;;;5.88;2.80;;;;;;;;;;6288642;28;20084;-64
2024/01/15 02:32:29;;;;;;;4.65;2.40;;;;;;;;;;6289129;28;20056;-65
2024/01/15 02:35:30;;;;;;;4.57;2.20;;;;;;;;;;6289440;28;20090;-65
2024/01/15 02:38:31;;;;;;;4.88;2.20;;;;;;;;;;6291219;28;20072;-65
2024/01/15 02:41:31;;;;;;;4.82;2.55;;;;;;;;;;6289939;28;20040;-65
2024/01/15 02:44:32;;;;;;;5.40;2.65;;;;;;;;;;6291128;28;20059;-65
2024/01/15 02:47:33;;;;;;;3.95;2.28;;;;;;;;;;6289386;28;20450;-66
2024/01/15 02:50:34;;;;;;;4.57;2.20;;;;;;;;;;6289030;28;20048;-65
2024/01/15 02:53:36;;;;;;;5.50;2.60;;;;;;;;;;6290883;28;20059;-65
2024/01/15 02:56:37;;;;;;;5.75;2.17;;;;;;;;;;6290719;28;20044;-65
2024/01/15 02:59:37;;;;;;;4.78;2.30;;;;;;;;;;6288442;28;20582;-65
2024/01/15 03:02:40;;;;;;;4.55;2.20;;;;;;;;;;6290029;28;20139;-66
2024/01/15 03:05:40;;;;;;;4.60;2.00;;;;;;;;;;6290606;28;20072;-66
2024/01/15 03:08:41;;;;;;;4.95;2.05;;;;;;;;;;6289920;28;20387;-65
2024/01/15 03:11:42;;;;;;;4.10;2.25;;;;;;;;;;6287675;28;20052;-65
2024/01/15 03:14:43;;;;;;;4.63;2.10;;;;;;;;;;6287528;28;20045;-66
2024/01/15 03:17:44;;;;;;;4.90;2.10;;;;;;;;;;6290373;28;20446;-66
2024/01/15 03:20:45;;;;;;;3.45;1.85;;;;;;;;;;6288758;28;20094;-65
2024/01/15 03:23:46;;;;;;;4.88;2.20;;;;;;;;;;6289987;28;20036;-65
2024/01/15 03:26:47;;;;;;;3.50;1.73;;;;;;;;;;6290072;28;20041;-66
2024/01/15 03:29:47;;;;;;;3.67;1.80;;;;;;;;;;6288670;28;20044;-66
2024/01/15 03:32:49;;;;;;;4.55;1.80;;;;;;;;;;6288670;28;20461;-67
2024/01/15 03:35:50;;;;;;;3.95;2.00;;;;;;;;;;6289748;28;20917;-66
2024/01/15 03:38:51;;;;;;;4.25;1.70;;;;;;;;;;6289901;28;20454;-66
2024/01/15 03:41:52;;;;;;;4.28;1.90;;;;;;;;;;6288856;28;20094;-67
2024/01/15 03:44:53;;;;;;;4.72;2.35;;;;;;;;;;6290017;28;20063;-66
2024/01/15 03:47:54;;;;;;;4.60;1.90;;;;;;;;;;6289724;28;20484;-66
2024/01/15 03:50:54;;;;;;;6.00;2.40;;;;;;;;;;6286386;28;20189;-66
2024/01/15 03:53:55;;;;;;;5.18;1.98;;;;;;;;;;6288946;28;20053;-66
2024/01/15 03:56:57;;;;;;;3.78;2.05;;;;;;;;;;6288826;28;20040;-66
2024/01/15 03:59:58;;;;;;;3.38;1.83;;;;;;;;;;6284716;28;20053;-65
2024/01/15 04:03:00;;;;;;;3.63;1.95;;;;;;;;;;6289141;28;20053;-66
2024/01/15 04:06:00;;;;;;;4.20;1.88;;;;;;;;;;6287851;28;20125;-66
2024/01/15 04:09:02;;;;;;;4.68;2.08;;;;;;;;;;6288239;28;20051;-66
2024/01/15 04:12:03;;;;;;;3.57;1.83;;;;;;;;;;6286502;28;20052;-66
2024/01/15 04:15:04;;;;;;;4.95;2.05;;;;;;;;;;6288120;28;20052;-66
2024/01/15 04:18:05;;;;;;;5.22;2.42;;;;;;;;;;6289510;28;20479;-66
2024/01/15 04:21:06;;;;;;;4.43;2.40;;;;;;;;;;6286305;28;20052;-66
2024/01/15 04:24:07;;;;;;;6.18;2.20;;;;;;;;;;6288150;28;20045;-65
2024/01/15 04:27:07;;;;;;;4.70;2.10;;;;;;;;;;6288767;28;20068;-65
2024/01/15 04:30:08;;;;;;;4.43;2.17;;;;;;;;;;6285740;28;20510;-66
2024/01/15 04:33:09;;;;;;;5.43;2.30;;;;;;;;;;6288676;28;20423;-66
2024/01/15 04:36:10;;;;;;;4.15;2.80;;;;;;;;;;6287644;28;20059;-66
2024/01/15 04:39:11;;;;;;;4.22;1.90;;;;;;;;;;6287056;28;20047;-67
2024/01/15 04:42:13;;;;;;;5.63;2.00;;;;;;;;;;6285835;28;20037;-66
2024/01/15 04:45:14;;;;;;;5.15;2.03;;;;;;;;;;6290677;28;20067;-66
2024/01/15 04:48:14;;;;;;;4.90;2.78;;;;;;;;;;6292717;28;20395;-66
2024/01/15 04:51:15;;;;;;;5.43;2.65;;;;;;;;;;6292045;28;20048;-65
2024/01/15 04:54:17;;;;;;;4.80;2.40;;;;;;;;;;6293272;28;20048;-66
2024/01/15 04:57:18;;;;;;;5.63;2.35;;;;;;;;;;6291750;28;20049;-66
2024/01/15 05:00:19;;;;;;;5.80;2.35;;;;;;;;;;6291191;28;20057;-65
2024/01/15 05:03:20;;;;;;;6.13;3.15;;;;;;;;;;6291393;28;20041;-66
2024/01/15 05:06:21;;;;;;;6.63;3.00;;;;;;;;;;6289629;28;20539;-65
2024/01/15 05:09:21;;;;;;;5.80;2.28;;;;;;;;;;6291799;28;20058;-65
2024/01/15 05:12:22;;;;;;;4.75;2.83;;;;;;;;;;6290491;28;20488;-65
2024/01/15 05:15:23;;;;;;;5.82;2.67;;;;;;;;;;6292476;28;20052;-65
2024/01/15 05:18:23;;;;;;;6.00;2.85;;;;;;;;;;6291615;28;20074;-66
2024/01/15 05:21:24;;;;;;;5.88;2.63;;;;;;;;;;6289248;28;20071;-64
2024/01/15 05:24:26;;;;;;;5.65;2.95;;;;;;;;;;6292245;28;20052;-65
2024/01/15 05:27:27;;;;;;;5.35;2.53;;;;;;;;;;6292773;28;20048;-65
2024/01/15 05:30:27;;;;;;;4.93;2.35;;;;;;;;;;6289871;28;20098;-65
2024/01/15 05:33:29;;;;;;;4.25;2.28;;;;;;;;;;6292412;28;20052;-65
2024/01/15 05:36:30;;;;;;;5.65;2.78;;;;;;;;;;6292708;28;20344;-65
2024/01/15 05:39:32;;;;;;;4.55;2.40;;;;;;;;;;6292127;28;20047;-65
2024/01/15 05:42:32;;;;;;;5.43;2.63;;;;;;;;;;6291669;28;20055;-65
2024/01/15 05:45:34;;;;;;;4.72;2.15;;;;;;;;;;6291479;28;20155;-65
2024/01/15 05:48:35;;;;;;;6.35;2.20;;;;;;;;;;6291279;28;20092;-65
2024/01/15 05:51:36;;;;;;;7.13;2.55;;;;;;;;;;6290859;28;20056;-65
2024/01/15 05:54:36;;;;;;;4.50;2.38;;;;;;;;;;6292083;28;20052;-65
2024/01/15 05:57:37;;;;;;;6.53;2.85;;;;;;;;;;6291396;28;20049;-65
2024/01/15 06:00:38;;;;;;;6.47;2.60;;;;;;;;;;6282831;28;20567;-65
2024/01/15 06:03:38;;;;;;;4.78;2.38;;;;;;;;;;6282092;28;20664;-64
2024/01/15 06:06:39;;;;;;;4.30;2.30;;;;;;;;;;6293991;28;20838;-65
2024/01/15 06:09:40;;;;;;;5.80;2.28;;;;;;;;;;6289514;28;20037;-64
2024/01/15 06:12:43;;;;;;;5.85;2.60;;;;;;;;;;6289022;28;20041;-70
2024/01/15 06:15:44;;;;;;;4.57;2.45;;;;;;;;;;6288914;28;20048;-63
2024/01/15 06:18:44;;;;;;;4.68;2.45;;;;;;;;;;6288648;28;20040;-63
2024/01/15 06:21:45;;;;;;;5.78;2.60;;;;;;;;;;6283045;28;20048;-63
2024/01/15 06:24:46;;;;;;;4.70;2.03;;;;;;;;;;6288533;28;20052;-63
2024/01/15 06:27:47;;;;;;;4.80;2.22;;;;;;;;;;6292824;28;20041;-64
2024/01/15 06:30:47;;;;;;;4.50;2.13;;;;;;;;;;6289156;28;20044;-69
2024/01/15 06:33:48;;;;;;;5.70;2.55;;;;;;;;;;6290165;28;20426;-64
2024/01/15 06:36:49;;;;;;;5.43;2.60;;;;;;;;;;6290176;28;20052;-64
2024/01/15 06:39:50;;;;;;;7.57;3.42;;;;;;;;;;6290401;28;20444;-63
2024/01/15 06:42:50;;;;;;;6.40;2.78;;;;;;;;;;6290108;28;20044;-63
2024/01/15 06:45:51;;;;;;;6.88;3.38;;;;;;;;;;6279905;28;20501;-63
2024/01/15 06:48:52;;;;;;;5.10;2.53;;;;;;;;;;6288994;28;20043;-63
2024/01/15 06:51:52;;;;;;;4.65;2.47;;;;;;;;;;6288563;28;20044;-63
2024/01/15 06:54:53;;;;;;;5.75;2.90;;;;;;;;;;6288462;28;20083;-64
2024/01/15 06:57:54;;;;;;;4.88;2.60;;;;;;;;;;6277028;28;20420;-63
2024/01/15 07:00:54;;;;;;;5.55;2.22;;;;;;;;;;6282753;28;20048;-63
2024/01/15 07:03:55;;;;;;;5.43;2.92;;;;;;;;;;6283119;28;20050;-63
2024/01/15 07:06:56;;;;;;;4.55;2.63;;;;;;;;;;6286047;28;20110;-63
2024/01/15 07:09:57;;;;;;;5.68;2.78;;;;;;;;;;6282755;28;20037;-64
2024/01/15 07:12:57;;;;;;;5.03;2.60;;;;;;;;;;6288201;28;20045;-63
2024/01/15 07:15:59;;;;;;;5.72;2.65;;;;;;;;;;6281608;28;20036;-63
2024/01/15 07:18:59;;;;;;;5.25;2.97;;;;;;;;;;6286555;28;20416;-64
2024/01/15 07:22:00;;;;;;;5.50;2.75;;;;;;;;;;6280758;28;20048;-63
2024/01/15 07:25:00;;;;;;;5.70;3.08;;;;;;;;;;6284041;28;20055;-63
2024/01/15 07:28:01;;;;;;;6.32;3.03;;;;;;;;;;6291409;28;20048;-64
2024/01/15 07:31:03;;;;;;;7.10;3.05;;;;;;;;;;6280568;28;20382;-63
2024/01/15 07:34:04;;;;;;;6.60;2.80;;;;;;;;;;6287119;28;20057;-64
2024/01/15 07:37:05;;;;;;;5.07;2.60;;;;;;;;;;6290508;28;20098;-64
2024/01/15 07:40:08;;;;;;;6.00;3.15;;;;;;;;;;6287197;28;20064;-64
2024/01/15 07:43:08;;;;;;;7.03;3.40;;;;;;;;;;6290677;28;20056;-63
2024/01/15 07:46:09;;;;;;;5.93;2.90;;;;;;;;;;6287634;28;20070;-65
2024/01/15 07:49:10;;;;;;;6.53;3.03;;;;;;;;;;6288020;28;20056;-65
2024/01/15 07:52:12;;;;;;;6.90;3.17;;;;;;;;;;6287092;28;20044;-63
2024/01/15 07:55:13;;;;;;;5.80;3.03;;;;;;;;;;6283405;28;20578;-63
2024/01/15 07:58:14;;;;;;;6.88;3.45;;;;;;;;;;6279119;28;20051;-63
2024/01/15 08:01:15;;;;;;;6.35;3.25;;;;;;;;;;6284507;28;20045;-65
2024/01/15 08:04:16;;;;;;;8.18;3.58;;;;;;;;;;6284925;28;20143;-63
2024/01/15 08:07:17;;;;;;;6.82;3.63;;;;;;;;;;6286944;28;20057;-62
2024/01/15 08:10:18;;;;;;;7.53;3.97;;;;;;;;;;6279922;28;20036;-63
2024/01/15 08:13:19;;;;;;;7.63;3.65;;;;;;;;;;6286704;28;20905;-64
2024/01/15 08:16:20;;;;;;;7.20;3.85;;;;;;;;;;6286443;28;20495;-63
2024/01/15 08:19:21;;;;;;;8.88;3.72;;;;;;;;;;6283790;28;20044;-63
2024/01/15 08:22:22;;;;;;;8.02;3.63;;;;;;;;;;6289228;28;20094;-63
2024/01/15 08:25:22;;;;;;;8.23;3.70;;;;;;;;;;6286183;28;20071;-63
2024/01/15 08:28:23;;;;;;;9.40;4.68;;;;;;;;;;6288047;28;20052;-63
2024/01/15 08:31:24;;;;;;;7.60;3.92;;;;;;;;;;6281062;28;20110;-63
2024/01/15 08:34:25;;;;;;;9.82;6.13;;;;;;;;;;6281536;28;20049;-65
2024/01/15 08:37:25;;;;;;;8.73;5.45;;;;;;;;;;6286870;28;20436;-63
2024/01/15 08:40:26;;;;;;;7.57;4.47;;;;;;;;;;6278798;28;20048;-63
2024/01/15 08:43:27;;;;;;;7.30;3.85;;;;;;;;;;6287494;28;20044;-64
2024/01/15 08:46:28;;;;;;;12.38;7.78;;;;;;;;;;6285678;28;20120;-64
2024/01/15 08:49:29;;;;;;;10.07;6.22;;;;;;;;;;6284326;28;20052;-63
2024/01/15 08:52:30;;;;;;;8.82;5.55;;;;;;;;;;6286982;28;20079;-68
2024/01/15 08:55:30;;;;;;;9.75;4.53;;;;;;;;;;6276739;28;20463;-64
2024/01/15 08:58:31;;;;;;;9.23;4.72;;;;;;;;;;6288432;28;20047;-64
2024/01/15 09:01:32;;;;;;;9.00;4.25;;;;;;;;;;6284659;28;20048;-65
2024/01/15 09:04:33;;;;;;;10.23;5.28;;;;;;;;;;6283458;28;20052;-67
2024/01/15 09:07:34;;;;;;;11.65;6.20;;;;;;;;;;6284279;28;20083;-70
2024/01/15 09:10:35;;;;;;;12.55;5.85;;;;;;;;;;6284290;28;20044;-65
2024/01/15 09:13:35;;;;;;;10.13;5.88;;;;;;;;;;6286168;28;21216;-64
2024/01/15 09:16:36;;;;;;;7.28;4.30;;;;;;;;;;6283405;28;20044;-64
2024/01/15 09:19:38;;;;;;;16.38;7.30;;;;;;;;;;6282052;28;20419;-64
2024/01/15 09:22:42;;;;;;;10.27;4.95;;;;;;;;;;6284964;28;20075;-67
2024/01/15 09:25:43;;;;;;;9.55;5.30;;;;;;;;;;6285962;28;20041;-65
2024/01/15 09:28:44;;;;;;;10.75;6.60;;;;;;;;;;6284527;28;20411;-66
2024/01/15 09:31:44;;;;;;;8.80;5.00;;;;;;;;;;6286553;28;20051;-65
2024/01/15 09:34:46;;;;;;;7.70;4.28;;;;;;;;;;6284030;28;20469;-68
2024/01/15 09:37:46;;;;;;;9.35;4.90;;;;;;;;;;6290639;28;20047;-69
2024/01/15 09:40:47;;;;;;;9.40;4.85;;;;;;;;;;6287002;28;20052;-64
2024/01/15 09:43:48;;;;;;;9.40;4.70;;;;;;;;;;6287967;28;20060;-65
2024/01/15 09:46:50;;;;;;;8.35;4.75;;;;;;;;;;6289753;28;20045;-64
2024/01/15 09:49:50;;;;;;;9.88;5.22;;;;;;;;;;6289188;28;20136;-64
2024/01/15 09:52:52;;;;;;;15.90;9.77;;;;;;;;;;6290033;28;20044;-64
2024/01/15 09:55:53;;;;;;;13.82;10.23;;;;;;;;;;6288954;28;20041;-64
2024/01/15 09:58:54;;;;;;;10.23;6.78;;;;;;;;;;6289781;28;20044;-64
2024/01/15 10:01:56;;;;;;;8.90;4.97;;;;;;;;;;6283048;28;20051;-65
2024/01/15 10:04:58;;;;;;;8.48;4.57;;;;;;;;;;6290068;28;20040;-64
2024/01/15 10:08:00;;;;;;;9.77;5.05;;;;;;;;;;6289868;28;20059;-65
2024/01/15 10:11:01;;;;;;;9.48;4.60;;;;;;;;;;6287766;28;20059;-64
2024/01/15 10:14:02;;;;;;;9.02;4.40;;;;;;;;;;6288787;28;20136;-64
2024/01/15 10:17:15;;;;;;;8.90;4.93;;;;;;;;;;6287617;28;20418;-64
2024/01/15 10:20:15;;;;;;;14.23;7.07;;;;;;;;;;6282234;28;20048;-64
2024/01/15 10:23:16;;;;;;;9.65;5.60;;;;;;;;;;6289202;28;20496;-65
2024/01/15 10:26:17;;;;;;;8.70;5.40;;;;;;;;;;6286688;28;20048;-64
2024/01/15 10:29:18;;;;;;;11.70;5.60;;;;;;;;;;6289050;28;20769;-65
2024/01/15 10:32:18;;;;;;;11.32;5.90;;;;;;;;;;6288846;28;20401;-69
2024/01/15 10:35:21;;;;;;;8.50;5.00;;;;;;;;;;6288785;28;20084;-65
2024/01/15 10:38:23;;;;;;;8.80;4.78;;;;;;;;;;6291055;28;20041;-65
2024/01/15 10:41:24;;;;;;;9.32;5.35;;;;;;;;;;6285360;28;20052;-65
2024/01/15 10:44:25;;;;;;;8.05;4.47;;;;;;;;;;6288287;28;20043;-65
2024/01/15 10:47:26;;;;;;;9.90;5.03;;;;;;;;;;6289015;28;20040;-66
2024/01/15 10:50:27;;;;;;;10.63;4.80;;;;;;;;;;6287092;28;20094;-66
2024/01/15 10:53:28;;;;;;;9.27;5.15;;;;;;;;;;6284994;28;20044;-65
2024/01/15 10:56:31;;;;;;;9.30;4.93;;;;;;;;;;6286339;28;20052;-66
2024/01/15 10:59:32;;;;;;;11.10;5.22;;;;;;;;;;6284960;28;20044;-67
2024/01/15 11:02:36;;;;;;;9.00;5.28;;;;;;;;;;6286830;28;20059;-66
2024/01/15 11:05:44;;;;;;;10.85;5.28;;;;;;;;;;6287129;28;20044;-67
2024/01/15 11:08:45;;;;;;;11.65;5.40;;;;;;;;;;6287529;28;20134;-66
2024/01/15 11:11:47;;;;;;;10.10;5.15;;;;;;;;;;6289399;28;20040;-66
2024/01/15 11:14:49;;;;;;;8.57;4.70;;;;;;;;;;6285370;28;20585;-65
2024/01/15 11:18:05;;;;;;;9.00;4.88;;;;;;;;;;6287096;28;20109;-65
2024/01/15 11:21:18;;;;;;;9.98;5.32;;;;;;;;;;6277580;28;20045;-66
2024/01/15 11:24:40;;;;;;;9.35;5.05;;;;;;;;;;6283191;28;20498;-66
2024/01/15 11:27:52;;;;;;;10.07;5.40;;;;;;;;;;6284748;28;20044;-67
2024/01/15 11:30:53;;;;;;;7.63;4.60;;;;;;;;;;6286309;28;20044;-65
2024/01/15 11:33:55;;;;;;;8.63;5.05;;;;;;;;;;6287044;28;20385;-66
2024/01/15 11:36:55;;;;;;;8.45;5.10;;;;;;;;;;6285253;28;20048;-66
2024/01/15 11:40:10;;;;;;;10.52;5.00;;;;;;;;;;6289017;28;20403;-67
2024/01/15 11:43:12;;;;;;;8.85;4.70;;;;;;;;;;6285244;28;20048;-66
2024/01/15 11:46:17;;;;;;;9.52;5.20;;;;;;;;;;6283277;28;20112;-66
2024/01/15 11:49:34;;;;;;;9.20;5.28;;;;;;;;;;6284644;28;20051;-66
2024/01/15 11:52:36;;;;;;;11.73;6.72;;;;;;;;;;6287261;28;20048;-66
2024/01/15 11:55:44;;;;;;;11.13;6.55;;;;;;;;;;6285066;28;20111;-65
2024/01/15 11:58:45;;;;;;;9.93;5.53;;;;;;;;;;6281842;28;20044;-69
2024/01/15 12:01:46;;;;;;;10.38;5.57;;;;;;;;;;6286551;28;20047;-67
2024/01/15 12:04:47;;;;;;;11.15;6.85;;;;;;;;;;6280004;28;20045;-66
2024/01/15 12:07:49;;;;;;;10.20;5.68;;;;;;;;;;6276008;28;20055;-66
2024/01/15 12:10:51;;;;;;;10.63;5.72;;;;;;;;;;6283084;28;20060;-66
2024/01/15 12:13:53;;;;;;;11.13;5.22;;;;;;;;;;6287133;28;20431;-65
2024/01/15 12:16:56;;;;;;;13.05;5.70;;;;;;;;;;6280387;28;20052;-69
2024/01/15 12:19:57;;;;;;;11.30;6.13;;;;;;;;;;6284516;28;20050;-67
2024/01/15 12:22:58;;;;;;;8.65;5.22;;;;;;;;;;6288998;28;20396;-68
2024/01/15 12:25:59;;;;;;;12.18;5.47;;;;;;;;;;6285404;28;20064;-69
2024/01/15 12:29:02;;;;;;;10.43;6.05;;;;;;;;;;6279592;28;20098;-69
2024/01/15 12:32:07;;;;;;;10.73;5.68;;;;;;;;;;6280872;28;20080;-69
2024/01/15 12:35:10;;;;;;;9.50;5.15;;;;;;;;;;6284442;28;20117;-68
2024/01/15 12:38:11;;;;;;;10.38;5.35;;;;;;;;;;6284934;28;20044;-68
2024/01/15 12:41:12;;;;;;;9.32;5.28;;;;;;;;;;6279200;28;21116;-68
2024/01/15 12:44:13;;;;;;;10.98;5.88;;;;;;;;;;6284173;28;20060;-68
2024/01/15 12:47:17;;;;;;;9.82;5.75;;;;;;;;;;6287375;28;20057;-68
2024/01/15 12:50:18;;;;;;;12.45;6.40;;;;;;;;;;6285348;28;20113;-68
2024/01/15 12:53:19;;;;;;;12.98;6.95;;;;;;;;;;6287534;28;20049;-71
2024/01/15 12:56:19;;;;;;;10.65;5.80;;;;;;;;;;6287860;28;20105;-68
2024/01/15 12:59:20;;;;;;;11.55;5.40;;;;;;;;;;6283366;28;20503;-69
2024/01/15 13:02:22;;;;;;;9.93;5.53;;;;;;;;;;6288836;28;20098;-66
2024/01/15 13:05:24;;;;;;;11.52;5.45;;;;;;;;;;6278789;28;20064;-69
2024/01/15 13:08:26;;;;;;;11.57;5.70;;;;;;;;;;6289765;28;20052;-68
2024/01/15 13:11:27;;;;;;;9.15;5.07;;;;;;;;;;6289144;28;20049;-68
2024/01/15 13:14:29;;;;;;;10.98;5.18;;;;;;;;;;6290033;28;20052;-68
2024/01/15 13:17:30;;;;;;;;;;;;;;;;;;6283275;28;20079;-67
2024/01/15 13:20:32;;;;;;;9.55;5.25;;;;;;;;;;6287935;28;19987;-67
2024/01/15 13:23:33;;;;;;;10.60;5.77;;;;;;;;;;6294006;28;20037;-68
2024/01/15 13:26:33;;;;;;;9.07;5.05;;;;;;;;;;6291985;28;20055;-70
2024/01/15 13:29:34;;;;;;;9.75;5.13;;;;;;;;;;6291754;28;20074;-69
2024/01/15 13:32:35;;;;;;;7.38;4.45;;;;;;;;;;6293861;28;20090;-70
2024/01/15 13:35:36;;;;;;;8.32;4.55;;;;;;;;;;6288866;28;20430;-68
2024/01/15 13:38:38;;;;;;;10.93;5.07;;;;;;;;;;6293774;28;20040;-68
2024/01/15 13:41:39;;;;;;;9.52;5.07;;;;;;;;;;6291081;28;20495;-69
2024/01/15 13:44:39;;;;;;;8.70;4.38;;;;;;;;;;6292742;28;20055;-73
2024/01/15 13:47:42;;;;;;;8.90;4.68;;;;;;;;;;6293056;28;20806;-73
2024/01/15 13:50:42;;;;;;;7.32;4.03;;;;;;;;;;6291664;28;20170;-72
2024/01/15 13:53:43;;;;;;;9.65;4.55;;;;;;;;;;6293087;28;20045;-72
2024/01/15 13:56:44;;;;;;;9.48;5.22;;;;;;;;;;6287271;28;20049;-71
2024/01/15 13:59:45;;;;;;;8.82;4.47;;;;;;;;;;6285770;28;20126;-68
2024/01/15 14:02:47;;;;;;;9.88;4.20;;;;;;;;;;6293110;28;20052;-68
2024/01/15 14:05:49;;;;;;;9.45;5.00;;;;;;;;;;6288118;28;20056;-67
2024/01/15 14:08:49;;;;;;;7.18;4.18;;;;;;;;;;6291168;28;20950;-68
2024/01/15 14:11:50;;;;;;;9.23;4.75;;;;;;;;;;6289243;28;20045;-69
2024/01/15 14:14:51;;;;;;;8.32;4.38;;;;;;;;;;6290121;28;20068;-69
2024/01/15 14:17:52;;;;;;;7.68;3.80;;;;;;;;;;6286801;28;20052;-68
2024/01/15 14:20:53;;;;;;;9.15;4.40;;;;;;;;;;6286502;28;20040;-69
2024/01/15 14:23:55;;;;;;;8.77;4.65;;;;;;;;;;6286973;28;20047;-68
2024/01/15 14:26:56;;;;;;;11.50;5.70;;;;;;;;;;6289082;28;20048;-69
2024/01/15 14:29:57;;;;;;;9.80;4.68;;;;;;;;;;6280218;28;20056;-69
2024/01/15 14:32:58;;;;;;;9.05;4.70;;;;;;;;;;6289400;28;20535;-69
2024/01/15 14:35:59;;;;;;;8.05;4.78;;;;;;;;;;6288265;28;20152;-69
2024/01/15 14:39:00;;;;;;;8.52;4.03;;;;;;;;;;6287233;28;20609;-69
2024/01/15 14:42:03;;;;;;;7.70;4.03;;;;;;;;;;6288654;28;20055;-68
2024/01/15 14:45:08;;;;;;;8.35;4.07;;;;;;;;;;6288456;28;20045;-69
2024/01/15 14:48:09;;;;;;;9.13;4.78;;;;;;;;;;6288053;28;20052;-69
2024/01/15 14:51:09;;;;;;;8.45;4.18;;;;;;;;;;6285629;28;20131;-69
2024/01/15 14:54:10;;;;;;;8.18;4.40;;;;;;;;;;6289589;28;20147;-69
2024/01/15 14:57:11;;;;;;;8.27;4.30;;;;;;;;;;6288976;28;20515;-69
2024/01/15 15:00:13;;;;;;;9.65;4.38;;;;;;;;;;6275860;28;20629;-69
2024/01/15 15:03:15;;;;;;;11.97;4.37;;;;;;;;;;6288273;28;20495;-69
2024/01/15 15:06:16;;;;;;;9.27;4.50;;;;;;;;;;6285216;28;20293;-69
2024/01/15 15:09:17;;;;;;;8.65;4.55;;;;;;;;;;6282802;28;20045;-69
2024/01/15 15:12:18;;;;;;;9.43;3.67;;;;;;;;;;6285083;28;20044;-70
2024/01/15 15:15:18;;;;;;;8.60;4.43;;;;;;;;;;6282328;28;20040;-68
2024/01/15 15:18:21;;;;;;;7.25;4.10;;;;;;;;;;6289701;28;20447;-71
2024/01/15 15:21:22;;;;;;;7.32;4.28;;;;;;;;;;6289352;28;20041;-71
2024/01/15 15:24:23;;;;;;;10.13;4.55;;;;;;;;;;6267242;28;20052;-70
2024/01/15 15:27:24;;;;;;;8.07;4.40;;;;;;;;;;6270546;28;20064;-70
2024/01/15 15:30:26;;;;;;;8.90;4.05;;;;;;;;;;6271650;28;20048;-71
2024/01/15 15:33:27;;;;;;;8.07;3.97;;;;;;;;;;6267446;28;21174;-69
2024/01/15 15:36:28;;;;;;;9.00;4.47;;;;;;;;;;6276797;28;20055;-70
2024/01/15 15:39:30;;;;;;;7.22;3.78;;;;;;;;;;6270087;28;21272;-70
2024/01/15 15:42:31;;;;;;;8.30;3.65;;;;;;;;;;6266843;28;20411;-71
2024/01/15 15:45:32;;;;;;;8.13;3.97;;;;;;;;;;6270955;28;20053;-70
2024/01/15 15:48:33;;;;;;;9.15;4.63;;;;;;;;;;6268476;28;20515;-68
2024/01/15 15:51:37;;;;;;;8.88;4.25;;;;;;;;;;6267669;28;20050;-69
2024/01/15 15:54:38;;;;;;;8.40;4.43;;;;;;;;;;6268631;28;20041;-72
2024/01/15 15:57:39;;;;;;;9.63;4.15;;;;;;;;;;6269859;28;20053;-70
2024/01/15 16:00:39;;;;;;;7.85;4.00;;;;;;;;;;6264995;28;20049;-71
2024/01/15 16:03:40;;;;;;;7.63;4.30;;;;;;;;;;6259749;28;20075;-70
2024/01/15 16:06:48;;;;;;;8.10;3.95;;;;;;;;;;6266168;28;20076;-71
2024/01/15 16:09:50;;;;;;;9.27;4.68;;;;;;;;;;6263464;28;20056;-71
2024/01/15 16:12:50;;;;;;;;;;;;;;;;;;6264412;28;20458;-72
2024/01/15 16:15:53;;;;;;;8.55;4.13;;;;;;;;;;6265967;28;19929;-68
2024/01/15 16:18:54;;;;;;;9.98;4.25;;;;;;;;;;6268149;28;20050;-67
2024/01/15 16:21:56;;;;;;;7.90;4.38;;;;;;;;;;6274939;28;20048;-67
2024/01/15 16:24:57;;;;;;;9.23;4.95;;;;;;;;;;6265799;28;20499;-67
2024/01/15 16:27:58;;;;;;;8.98;4.10;;;;;;;;;;6267967;28;20064;-68
2024/01/15 16:30:59;;;;;;;7.78;3.60;;;;;;;;;;6269899;28;20101;-67
2024/01/15 16:33:59;;;;;;;8.60;4.15;;;;;;;;;;6273105;28;20056;-65
2024/01/15 16:37:00;;;;;;;8.15;4.13;;;;;;;;;;6259952;28;20086;-66
2024/01/15 16:40:04;;;;;;;;;;;;;;;;;;6267595;28;20496;-68
2024/01/15 16:43:08;;;;;;;;;;;;;;;;;;6267474;28;19928;-63
2024/01/15 16:46:08;;;;;;;;;;;;;;;;;;6270885;28;19924;-67
2024/01/15 16:49:11;;;;;;;;;;;;;;;;;;6266237;28;19929;-67
2024/01/15 16:52:12;;;;;;;;;;;;;;;;;;6255793;28;20208;-72
2024/01/15 16:55:13;;;;;;;;;;;;;;;;;;6267313;28;19929;-70
2024/01/15 16:58:14;;;;;;;;;;;;;;;;;;6273085;28;20020;-70
2024/01/15 17:01:15;;;;;;;;;;;;;;;;;;6270289;28;19962;-69
2024/01/15 17:04:15;;;;;;;;;;;;;;;;;;6271349;28;19925;-70
2024/01/15 17:07:16;;;;;;;;;;;;;;;;;;6270163;28;19994;-68
2024/01/15 17:10:17;;;;;;;;;;;;;;;;;;6274571;28;19929;-71
2024/01/15 17:13:18;;;;;;;;;;;;;;;;;;6270482;28;20054;-70
2024/01/15 17:16:18;;;;;;;;;;;;;;;;;;6276681;28;19931;-71
2024/01/15 17:19:19;;;;;;;;;;;;;;;;;;6274463;28;20007;-70
2024/01/15 17:22:20;;;;;;;;;;;;;;;;;;6273298;28;20677;-69
2024/01/15 17:25:21;;;;;;;;;;;;;;;;;;6271871;28;19935;-70
2024/01/15 17:28:22;;;;;;;;;;;;;;;;;;6273378;28;20299;-68
2024/01/15 17:31:23;;;;;;;;;;;;;;;;;;6266564;28;20741;-65
2024/01/15 17:34:23;;;;;;;;;;;;;;;;;;6274263;28;19974;-69
2024/01/15 17:37:24;;;;;;;;;;;;;;;;;;6271991;28;19931;-70
2024/01/15 17:40:25;;;;;;;;;;;;;;;;;;6268006;28;19943;-72
2024/01/15 17:43:27;;;;;;;;;;;;;;;;;;6272966;28;20342;-73
2024/01/15 17:46:27;;;;;;;;;;;;;;;;;;6275707;28;19924;-72
2024/01/15 17:49:30;;;;;;;;;;;;;;;;;;6274694;28;20371;-70
2024/01/15 17:52:31;;;;;;;;;;;;;;;;;;6270274;28;20074;-72
2024/01/15 17:55:32;;;;;;;;;;;;;;;;;;6275103;28;19940;-72
2024/01/15 17:58:32;;;;;;;;;;;;;;;;;;6284613;28;20437;-72
2024/01/15 18:01:35;;;;;;;;;;;;;;;;;;6269747;28;20018;-73
2024/01/15 18:04:36;;;;;;;;;;;;;;;;;;6293112;28;19931;-73
2024/01/15 18:07:37;;;;;;;;;;;;;;;;;;6268946;28;20306;-69
2024/01/15 18:10:38;;;;;;;;;;;;;;;;;;6266418;28;19928;-74
2024/01/15 18:13:43;;;;;;;;;;;;;;;;;;6270554;28;19924;-73
2024/01/15 18:16:48;;;;;;;;;;;;;;;;;;6273945;28;20645;-73
2024/01/15 18:19:49;;;;;;;;;;;;;;;;;;6269503;28;19925;-71